KGHG

Marshfield Municipal - George Harlow Field Airport

Marshfield, Massachusetts, USA
METAR KGHG 150315Z AUTO 21003KT 10SM CLR 23/22 A2985 RMK AO2
Observed Flight Rules
Aug-15 @ 03:15 UTC (21 minutes ago) Visual Flight Rules
Wind Visibility Clouds
210° at 3 knots 10 miles
  • Clear skies
Temperatures Readings
Current 23°C / 73°F
Dewpoint 22°C / 72°F
Humidity 94%
Altimeter 29.85" Hg
Pressure 1011 hPa
Elevation 4
METAR KGHG 150315Z AUTO 21003KT 10SM CLR 23/22 A2985 RMK AO2
Observed Flight Rules
Aug-15 @ 03:15 UTC
(21 minutes ago)
VFR
Wind Visibility
210° at 3 knots 10 miles
Clouds
  • Clear skies
Temperature Dewpoint
23°C / 73°F 22°C / 72°F
Humidity Altimeter Pressure
94% 29.85" Hg 1011 hPa